Time;durP1;ratioP1;P1;durP2;ratioP2;P2;SDS_P1;SDS_P2;PMS_P1;PMS_P2;Temp;Humidity;BMP_temperature;BMP_pressure;BME280_temperature;BME280_humidity;BME280_pressure;Samples;Min_cycle;Max_cycle;Signal;HPM_P1;HPM_P2
2022/07/09 00:00:20;;;;;;;12.55;3.60;;;;;;;;;;5016586;28;20064;-75
2022/07/09 00:02:47;;;;;;;12.13;3.42;;;;;;;;;;5019388;28;20053;-75
2022/07/09 00:05:14;;;;;;;11.20;3.90;;;;;;;;;;5018019;28;20184;-75
2022/07/09 00:07:44;;;;;;;12.75;3.03;;;;;;;;;;5033275;28;20064;-75
2022/07/09 00:10:11;;;;;;;10.38;3.45;;;;;;;;;;5018179;28;20077;-75
2022/07/09 00:12:38;;;;;;;13.40;3.78;;;;;;;;;;5039752;28;20134;-74
2022/07/09 00:15:06;;;;;;;13.80;3.25;;;;;;;;;;5015567;28;20137;-74
2022/07/09 00:17:34;;;;;;;11.02;3.78;;;;;;;;;;5018305;28;20064;-74
2022/07/09 00:20:04;;;;;;;20.20;3.53;;;;;;;;;;5032547;28;20136;-75
2022/07/09 00:22:32;;;;;;;8.98;3.28;;;;;;;;;;5036263;28;20046;-75
2022/07/09 00:25:00;;;;;;;11.43;3.75;;;;;;;;;;5019195;28;20156;-75
2022/07/09 00:27:27;;;;;;;13.95;3.10;;;;;;;;;;5020412;28;20493;-75
2022/07/09 00:29:54;;;;;;;11.98;3.22;;;;;;;;;;5017821;28;20160;-75
2022/07/09 00:32:22;;;;;;;13.95;3.45;;;;;;;;;;5021276;28;20050;-75
2022/07/09 00:34:49;;;;;;;10.13;2.60;;;;;;;;;;5017827;28;20053;-75
2022/07/09 00:37:16;;;;;;;15.10;3.40;;;;;;;;;;5032761;28;20051;-75
2022/07/09 00:39:44;;;;;;;13.73;2.83;;;;;;;;;;5018548;28;21252;-75
2022/07/09 00:42:11;;;;;;;7.78;3.13;;;;;;;;;;5021239;28;20144;-75
2022/07/09 00:44:39;;;;;;;10.98;3.15;;;;;;;;;;5030242;28;20164;-74
2022/07/09 00:47:07;;;;;;;8.63;2.50;;;;;;;;;;5015438;28;20135;-75
2022/07/09 00:49:42;;;;;;;8.77;2.88;;;;;;;;;;5017962;28;20661;-75
2022/07/09 00:52:14;;;;;;;9.73;2.70;;;;;;;;;;5034663;28;20053;-75
2022/07/09 00:54:42;;;;;;;10.02;3.05;;;;;;;;;;5015206;28;20136;-74
2022/07/09 00:57:10;;;;;;;10.20;3.10;;;;;;;;;;5033206;28;20569;-75
2022/07/09 00:59:38;;;;;;;12.25;3.20;;;;;;;;;;5032242;28;20150;-75
2022/07/09 01:02:09;;;;;;;8.50;2.83;;;;;;;;;;5018935;28;20080;-75
2022/07/09 01:04:39;;;;;;;10.20;2.88;;;;;;;;;;5016827;28;20509;-75
2022/07/09 01:07:06;;;;;;;7.30;2.72;;;;;;;;;;5017921;28;20053;-75
2022/07/09 01:09:34;;;;;;;12.85;2.78;;;;;;;;;;5032319;28;20045;-75
2022/07/09 01:12:01;;;;;;;12.35;2.72;;;;;;;;;;5034480;28;20085;-75
2022/07/09 01:14:29;;;;;;;13.98;2.45;;;;;;;;;;5033920;28;20176;-75
2022/07/09 01:17:00;;;;;;;13.00;3.42;;;;;;;;;;5030021;28;20167;-75
2022/07/09 01:19:28;;;;;;;13.68;3.38;;;;;;;;;;5033193;28;20049;-75
2022/07/09 01:21:55;;;;;;;7.18;2.15;;;;;;;;;;5017904;28;20140;-75
2022/07/09 01:24:26;;;;;;;10.10;2.83;;;;;;;;;;5015203;28;20139;-75
2022/07/09 01:26:54;;;;;;;8.15;3.10;;;;;;;;;;5016694;28;20088;-75
2022/07/09 01:29:21;;;;;;;18.00;3.65;;;;;;;;;;5015780;28;20104;-75
2022/07/09 01:31:49;;;;;;;10.60;3.35;;;;;;;;;;5017166;28;20140;-75
2022/07/09 01:34:16;;;;;;;8.75;2.67;;;;;;;;;;5015155;28;20053;-76
2022/07/09 01:36:44;;;;;;;9.98;2.40;;;;;;;;;;5011906;28;20058;-74
2022/07/09 01:39:11;;;;;;;7.60;2.92;;;;;;;;;;5015709;28;20077;-74
2022/07/09 01:41:38;;;;;;;9.18;2.35;;;;;;;;;;5031690;28;20140;-74
2022/07/09 01:44:06;;;;;;;7.45;2.17;;;;;;;;;;5015625;28;20052;-74
2022/07/09 01:46:35;;;;;;;5.38;2.40;;;;;;;;;;5015375;28;20061;-73
2022/07/09 01:49:03;;;;;;;7.30;2.40;;;;;;;;;;5016988;28;20061;-74
2022/07/09 01:51:30;;;;;;;13.43;2.47;;;;;;;;;;5019116;28;20486;-74
2022/07/09 01:53:58;;;;;;;14.25;4.53;;;;;;;;;;5016937;28;20781;-74
2022/07/09 01:56:25;;;;;;;11.85;2.30;;;;;;;;;;5014335;28;20777;-74
2022/07/09 01:58:52;;;;;;;7.70;2.50;;;;;;;;;;5015110;28;20171;-74
2022/07/09 02:01:20;;;;;;;6.72;2.53;;;;;;;;;;5017572;28;20217;-74
2022/07/09 02:03:47;;;;;;;13.30;2.53;;;;;;;;;;5013184;28;20081;-74
2022/07/09 02:06:15;;;;;;;12.52;2.65;;;;;;;;;;5009860;28;20057;-74
2022/07/09 02:08:43;;;;;;;8.18;2.13;;;;;;;;;;5009338;28;20505;-74
2022/07/09 02:11:10;;;;;;;13.93;2.78;;;;;;;;;;5010980;28;20053;-75
2022/07/09 02:13:38;;;;;;;9.68;2.45;;;;;;;;;;5023392;28;20073;-75
2022/07/09 02:16:05;;;;;;;5.65;2.30;;;;;;;;;;5009090;28;20049;-74
2022/07/09 02:18:32;;;;;;;7.85;2.20;;;;;;;;;;5022973;28;20053;-75
2022/07/09 02:21:00;;;;;;;7.65;2.50;;;;;;;;;;5009343;28;20606;-74
2022/07/09 02:23:28;;;;;;;7.63;2.45;;;;;;;;;;5018722;28;20049;-74
2022/07/09 02:25:55;;;;;;;9.10;2.60;;;;;;;;;;5022466;28;20049;-74
2022/07/09 02:28:23;;;;;;;13.25;2.75;;;;;;;;;;5024239;28;20087;-74
2022/07/09 02:30:50;;;;;;;6.35;2.45;;;;;;;;;;5024589;28;20049;-75
2022/07/09 02:33:17;;;;;;;7.82;2.65;;;;;;;;;;5019331;28;20057;-75
2022/07/09 02:35:45;;;;;;;17.08;2.55;;;;;;;;;;5013598;28;20081;-74
2022/07/09 02:38:12;;;;;;;8.82;3.20;;;;;;;;;;5017114;28;20053;-75
2022/07/09 02:40:39;;;;;;;4.55;2.20;;;;;;;;;;5031661;28;20053;-74
2022/07/09 02:43:07;;;;;;;8.23;2.38;;;;;;;;;;5021514;28;20057;-75
2022/07/09 02:45:34;;;;;;;12.38;2.70;;;;;;;;;;5015531;28;20192;-75
2022/07/09 02:48:01;;;;;;;7.72;2.25;;;;;;;;;;5017113;28;20180;-74
2022/07/09 02:50:29;;;;;;;15.18;2.58;;;;;;;;;;5020250;28;21576;-75
2022/07/09 02:52:56;;;;;;;12.82;2.50;;;;;;;;;;5025612;28;20072;-75
2022/07/09 02:55:23;;;;;;;14.77;2.70;;;;;;;;;;5018603;28;20132;-74
2022/07/09 02:57:50;;;;;;;6.35;2.35;;;;;;;;;;5020361;28;20144;-74
2022/07/09 03:00:18;;;;;;;11.23;2.30;;;;;;;;;;5019672;28;20180;-74
2022/07/09 03:02:45;;;;;;;9.70;2.03;;;;;;;;;;5018621;28;20197;-75
2022/07/09 03:05:12;;;;;;;9.77;2.80;;;;;;;;;;5017960;28;21176;-75
2022/07/09 03:07:40;;;;;;;19.15;3.15;;;;;;;;;;5036149;28;20160;-75
2022/07/09 03:10:07;;;;;;;13.73;2.25;;;;;;;;;;5018626;28;20168;-75
2022/07/09 03:12:34;;;;;;;9.02;3.28;;;;;;;;;;5034585;28;20699;-76
2022/07/09 03:15:02;;;;;;;7.15;2.60;;;;;;;;;;5033630;28;20451;-75
2022/07/09 03:17:29;;;;;;;5.82;2.42;;;;;;;;;;5019347;28;20072;-75
2022/07/09 03:19:57;;;;;;;8.13;2.83;;;;;;;;;;5035163;28;20112;-75
2022/07/09 03:22:24;;;;;;;11.18;2.50;;;;;;;;;;5037460;28;20073;-74
2022/07/09 03:24:51;;;;;;;12.85;3.13;;;;;;;;;;5017137;28;20140;-74
2022/07/09 03:27:19;;;;;;;8.05;2.67;;;;;;;;;;5018679;28;20049;-75
2022/07/09 03:29:46;;;;;;;5.60;2.60;;;;;;;;;;5017586;28;20545;-74
2022/07/09 03:32:13;;;;;;;8.82;2.72;;;;;;;;;;5036249;28;20049;-74
2022/07/09 03:34:40;;;;;;;8.23;3.03;;;;;;;;;;5012331;28;20077;-74
2022/07/09 03:37:08;;;;;;;8.55;2.67;;;;;;;;;;5024300;28;20088;-74
2022/07/09 03:39:35;;;;;;;10.77;2.30;;;;;;;;;;5007803;28;20049;-74
2022/07/09 03:42:05;;;;;;;7.45;2.72;;;;;;;;;;5016202;28;20084;-74
2022/07/09 03:44:33;;;;;;;9.27;2.97;;;;;;;;;;5024838;28;20718;-74
2022/07/09 03:47:00;;;;;;;13.32;2.80;;;;;;;;;;5017516;28;20071;-74
2022/07/09 03:49:28;;;;;;;10.23;2.92;;;;;;;;;;5014424;28;20154;-74
2022/07/09 03:51:55;;;;;;;8.82;2.60;;;;;;;;;;5018152;28;21326;-74
2022/07/09 03:54:41;;;;;;;6.43;3.50;;;;;;;;;;5018134;28;20184;-74
2022/07/09 03:57:09;;;;;;;6.35;2.70;;;;;;;;;;5033410;28;20056;-75
2022/07/09 03:59:36;;;;;;;20.42;2.92;;;;;;;;;;5017472;28;20519;-74
2022/07/09 04:02:04;;;;;;;9.95;2.85;;;;;;;;;;5036410;28;20063;-75
2022/07/09 04:04:38;;;;;;;9.57;2.67;;;;;;;;;;5021299;28;20049;-74
2022/07/09 04:07:06;;;;;;;8.40;2.60;;;;;;;;;;5017691;28;20045;-74
2022/07/09 04:09:33;;;;;;;9.05;2.78;;;;;;;;;;5032111;28;20189;-74
2022/07/09 04:12:00;;;;;;;12.23;2.92;;;;;;;;;;5018862;28;20049;-74
2022/07/09 04:14:28;;;;;;;7.53;3.15;;;;;;;;;;5033894;28;20140;-74
2022/07/09 04:16:55;;;;;;;9.73;2.92;;;;;;;;;;5015354;28;21479;-75
2022/07/09 04:19:23;;;;;;;7.50;2.80;;;;;;;;;;5016358;28;20060;-74
2022/07/09 04:21:50;;;;;;;10.60;2.30;;;;;;;;;;5020799;28;20107;-74
2022/07/09 04:24:17;;;;;;;8.40;3.00;;;;;;;;;;5020167;28;20405;-75
2022/07/09 04:26:45;;;;;;;4.30;2.25;;;;;;;;;;5017031;28;20084;-75
2022/07/09 04:29:12;;;;;;;9.30;2.80;;;;;;;;;;5015721;28;20132;-75
2022/07/09 04:31:39;;;;;;;9.80;2.85;;;;;;;;;;5018423;28;20045;-75
2022/07/09 04:34:07;;;;;;;8.40;2.83;;;;;;;;;;5025622;28;20053;-75
2022/07/09 04:36:34;;;;;;;7.13;2.97;;;;;;;;;;5016392;28;20132;-74
2022/07/09 04:39:02;;;;;;;11.20;3.60;;;;;;;;;;5016679;28;20090;-74
2022/07/09 04:41:29;;;;;;;10.30;4.72;;;;;;;;;;5033953;28;20183;-74
2022/07/09 04:43:56;;;;;;;15.05;3.17;;;;;;;;;;5017673;28;20067;-74
2022/07/09 04:46:26;;;;;;;14.85;3.80;;;;;;;;;;5017548;28;21046;-74
2022/07/09 04:48:54;;;;;;;10.45;3.35;;;;;;;;;;5016665;28;20056;-74
2022/07/09 04:51:21;;;;;;;10.55;3.60;;;;;;;;;;5017318;28;20565;-74
2022/07/09 04:53:48;;;;;;;13.05;4.05;;;;;;;;;;5041489;28;20049;-74
2022/07/09 04:56:16;;;;;;;9.63;3.55;;;;;;;;;;5018538;28;20159;-74
2022/07/09 04:58:51;;;;;;;9.63;3.95;;;;;;;;;;5016602;28;20144;-74
2022/07/09 05:01:19;;;;;;;7.15;3.30;;;;;;;;;;5015231;28;21012;-74
2022/07/09 05:03:47;;;;;;;9.93;4.10;;;;;;;;;;5019298;28;20053;-74
2022/07/09 05:06:14;;;;;;;16.60;3.85;;;;;;;;;;5017453;28;20136;-74
2022/07/09 05:12:03;;;;;;;7.65;3.10;;;;;;;;;;5012979;28;20062;-79
2022/07/09 05:14:30;;;;;;;13.20;3.58;;;;;;;;;;5009034;28;20060;-79
2022/07/09 05:16:57;;;;;;;8.77;3.08;;;;;;;;;;5011191;28;20056;-79
2022/07/09 05:19:25;;;;;;;9.52;3.65;;;;;;;;;;5013423;28;20049;-79
2022/07/09 05:21:52;;;;;;;13.85;3.42;;;;;;;;;;5011823;28;20460;-78
2022/07/09 05:24:20;;;;;;;7.10;3.63;;;;;;;;;;5012335;28;20050;-78
2022/07/09 05:26:47;;;;;;;12.35;3.55;;;;;;;;;;5012061;28;20433;-79
2022/07/09 05:29:14;;;;;;;10.15;4.03;;;;;;;;;;5013865;28;20073;-79
2022/07/09 05:31:42;;;;;;;11.48;3.97;;;;;;;;;;5013823;28;20146;-79
2022/07/09 05:34:09;;;;;;;9.43;3.25;;;;;;;;;;5006048;28;20057;-79
2022/07/09 05:36:37;;;;;;;12.38;3.92;;;;;;;;;;5007419;28;20548;-79
2022/07/09 05:39:06;;;;;;;12.07;3.85;;;;;;;;;;5013777;28;20085;-80
2022/07/09 05:41:34;;;;;;;10.45;3.50;;;;;;;;;;5015694;28;20066;-80
2022/07/09 05:44:04;;;;;;;11.23;4.03;;;;;;;;;;5017547;28;20099;-82
2022/07/09 05:46:32;;;;;;;13.57;3.90;;;;;;;;;;5021451;28;20052;-83
2022/07/09 05:48:59;;;;;;;12.95;3.28;;;;;;;;;;5014515;28;20119;-79
2022/07/09 05:51:26;;;;;;;7.35;3.58;;;;;;;;;;5015578;28;20069;-80
2022/07/09 05:53:53;;;;;;;18.10;4.28;;;;;;;;;;5018880;28;20517;-81
2022/07/09 05:56:21;;;;;;;12.88;3.47;;;;;;;;;;4995200;28;20082;-81
2022/07/09 05:58:48;;;;;;;16.00;4.30;;;;;;;;;;5015582;28;20085;-81
2022/07/09 06:01:16;;;;;;;12.93;4.15;;;;;;;;;;5019002;28;20100;-79
2022/07/09 06:03:49;;;;;;;13.18;3.80;;;;;;;;;;4994794;28;20053;-84
2022/07/09 06:06:16;;;;;;;14.75;4.72;;;;;;;;;;5013955;28;20038;-85
2022/07/09 06:08:44;;;;;;;9.85;4.30;;;;;;;;;;5020344;28;20112;-84
2022/07/09 06:11:12;;;;;;;11.65;3.72;;;;;;;;;;5017131;28;20076;-84
2022/07/09 06:13:39;;;;;;;18.05;4.20;;;;;;;;;;5017579;28;20050;-83
2022/07/09 06:16:06;;;;;;;11.68;3.67;;;;;;;;;;5004919;28;20046;-83
2022/07/09 06:18:34;;;;;;;17.98;4.63;;;;;;;;;;5026534;28;20072;-84
2022/07/09 06:21:02;;;;;;;11.00;3.72;;;;;;;;;;5012436;28;20042;-83
2022/07/09 06:23:29;;;;;;;9.82;4.03;;;;;;;;;;5012514;28;20080;-86
2022/07/09 06:25:56;;;;;;;15.38;4.25;;;;;;;;;;5016785;28;20070;-84
2022/07/09 06:28:24;;;;;;;20.17;4.32;;;;;;;;;;5020683;28;20147;-82
2022/07/09 06:30:51;;;;;;;8.13;3.78;;;;;;;;;;5019491;28;20115;-83
2022/07/09 06:33:18;;;;;;;10.20;4.20;;;;;;;;;;5020849;28;20128;-83
2022/07/09 06:35:46;;;;;;;13.57;3.92;;;;;;;;;;5005858;28;20455;-88
2022/07/09 06:38:13;;;;;;;9.02;4.07;;;;;;;;;;5011453;28;20050;-84
2022/07/09 06:40:40;;;;;;;11.98;4.18;;;;;;;;;;5016232;28;20042;-86
2022/07/09 06:43:09;;;;;;;9.80;4.00;;;;;;;;;;5017217;28;20083;-83
2022/07/09 06:48:59;;;;;;;4.70;3.30;;;;;;;;;;5003284;22;20053;-76
2022/07/09 06:51:26;;;;;;;7.45;3.78;;;;;;;;;;4987923;28;20074;-76
2022/07/09 06:53:53;;;;;;;16.42;4.25;;;;;;;;;;4997174;28;20054;-77
2022/07/09 06:56:21;;;;;;;7.35;4.07;;;;;;;;;;4987092;28;20084;-76
2022/07/09 06:58:48;;;;;;;13.35;3.72;;;;;;;;;;4985188;28;20132;-76
2022/07/09 07:01:15;;;;;;;10.23;3.55;;;;;;;;;;4984374;28;20731;-75
2022/07/09 07:03:43;;;;;;;12.95;4.00;;;;;;;;;;4985891;28;20141;-77
2022/07/09 07:06:10;;;;;;;10.27;3.90;;;;;;;;;;4987263;28;20046;-77
2022/07/09 07:08:37;;;;;;;11.82;4.45;;;;;;;;;;4990696;28;20137;-76
2022/07/09 07:11:05;;;;;;;13.73;4.68;;;;;;;;;;4991561;28;20054;-78
2022/07/09 07:13:32;;;;;;;10.52;3.88;;;;;;;;;;4987423;28;20100;-77
2022/07/09 07:16:00;;;;;;;11.88;3.88;;;;;;;;;;4990856;28;20534;-77
2022/07/09 07:18:27;;;;;;;16.40;5.22;;;;;;;;;;4992070;28;20069;-77
2022/07/09 07:20:54;;;;;;;13.75;4.50;;;;;;;;;;4993120;28;20507;-77
2022/07/09 07:23:22;;;;;;;19.08;5.40;;;;;;;;;;4991689;28;20533;-78
2022/07/09 07:25:49;;;;;;;18.92;4.70;;;;;;;;;;4988988;28;20952;-78
2022/07/09 07:28:16;;;;;;;13.60;4.60;;;;;;;;;;4993267;28;20419;-77
2022/07/09 07:30:43;;;;;;;17.52;4.65;;;;;;;;;;4973298;28;20046;-76
2022/07/09 07:33:11;;;;;;;10.35;4.72;;;;;;;;;;4986888;28;20141;-77
2022/07/09 07:35:39;;;;;;;14.38;4.53;;;;;;;;;;4988242;28;20054;-77
2022/07/09 07:38:06;;;;;;;14.80;4.70;;;;;;;;;;4966859;28;20078;-77
2022/07/09 07:40:33;;;;;;;13.30;4.07;;;;;;;;;;4984791;28;20097;-76
2022/07/09 07:43:00;;;;;;;9.70;4.38;;;;;;;;;;4985850;28;20070;-77
2022/07/09 07:45:28;;;;;;;9.05;4.03;;;;;;;;;;4987600;28;20089;-77
2022/07/09 07:47:56;;;;;;;17.85;5.30;;;;;;;;;;4996573;28;20116;-75
2022/07/09 07:50:24;;;;;;;83.88;13.20;;;;;;;;;;5001597;28;20170;-77
2022/07/09 07:52:51;;;;;;;39.67;6.75;;;;;;;;;;4980874;28;21460;-76
2022/07/09 07:55:18;;;;;;;16.02;4.53;;;;;;;;;;4978723;28;20148;-78
2022/07/09 07:57:45;;;;;;;12.02;3.67;;;;;;;;;;4969694;28;20073;-77
2022/07/09 08:00:13;;;;;;;11.07;3.58;;;;;;;;;;5001591;28;20054;-76
2022/07/09 08:02:40;;;;;;;9.88;3.45;;;;;;;;;;4986197;28;20110;-75
2022/07/09 08:05:08;;;;;;;16.92;3.92;;;;;;;;;;4984538;28;20108;-76
2022/07/09 08:07:35;;;;;;;10.55;3.30;;;;;;;;;;4987751;28;20633;-77
2022/07/09 08:10:03;;;;;;;7.88;3.20;;;;;;;;;;4991823;28;20148;-77
2022/07/09 08:12:30;;;;;;;7.97;3.08;;;;;;;;;;4999311;28;20050;-77
2022/07/09 08:14:58;;;;;;;6.10;2.67;;;;;;;;;;4985277;28;20228;-77
2022/07/09 08:17:25;;;;;;;7.28;2.53;;;;;;;;;;4986288;28;20082;-77
2022/07/09 08:19:52;;;;;;;6.88;2.70;;;;;;;;;;4992296;28;20113;-77
2022/07/09 08:22:20;;;;;;;6.10;2.53;;;;;;;;;;4987806;28;20101;-77
2022/07/09 08:24:47;;;;;;;7.18;2.50;;;;;;;;;;4987562;28;20101;-77
2022/07/09 08:27:14;;;;;;;4.97;2.40;;;;;;;;;;4987621;28;20082;-77
2022/07/09 08:29:42;;;;;;;4.63;2.85;;;;;;;;;;4985993;28;20138;-77
2022/07/09 08:32:09;;;;;;;5.25;2.40;;;;;;;;;;4992512;28;20376;-77
2022/07/09 08:34:37;;;;;;;8.73;2.75;;;;;;;;;;4989167;28;20159;-77
2022/07/09 08:37:04;;;;;;;7.13;2.30;;;;;;;;;;4987607;28;20141;-77
2022/07/09 08:39:36;;;;;;;7.22;2.35;;;;;;;;;;4989487;28;20046;-78
2022/07/09 08:42:09;;;;;;;4.20;1.98;;;;;;;;;;4973942;28;20767;-77
2022/07/09 08:44:38;;;;;;;7.30;2.40;;;;;;;;;;4987118;28;20070;-76
2022/07/09 08:47:06;;;;;;;9.02;2.40;;;;;;;;;;4987868;28;20090;-76
2022/07/09 08:49:34;;;;;;;5.68;2.30;;;;;;;;;;4983890;28;20074;-76
2022/07/09 08:52:03;;;;;;;6.65;2.53;;;;;;;;;;4985796;28;20054;-76
2022/07/09 08:54:35;;;;;;;5.95;2.33;;;;;;;;;;4988066;28;20133;-76
2022/07/09 08:57:03;;;;;;;5.75;1.65;;;;;;;;;;4987811;28;20133;-76
2022/07/09 08:59:30;;;;;;;5.40;2.13;;;;;;;;;;4986553;28;20113;-76
2022/07/09 09:01:57;;;;;;;7.45;1.70;;;;;;;;;;4986597;28;20137;-76
2022/07/09 09:04:24;;;;;;;5.78;1.70;;;;;;;;;;4984841;28;20078;-76
2022/07/09 09:06:53;;;;;;;3.55;1.48;;;;;;;;;;4986975;28;20097;-76
2022/07/09 09:09:21;;;;;;;6.32;1.85;;;;;;;;;;4987226;28;20550;-76
2022/07/09 09:11:52;;;;;;;2.67;1.70;;;;;;;;;;4971537;28;20161;-76
2022/07/09 09:14:20;;;;;;;3.17;1.55;;;;;;;;;;4985330;28;20074;-76
2022/07/09 09:16:48;;;;;;;4.32;2.30;;;;;;;;;;4986606;28;20079;-76
2022/07/09 09:19:15;;;;;;;4.50;1.70;;;;;;;;;;4987140;28;20050;-76
2022/07/09 09:21:42;;;;;;;3.67;1.30;;;;;;;;;;4985529;28;20050;-76
2022/07/09 09:24:10;;;;;;;3.15;1.55;;;;;;;;;;4984937;28;20725;-76
2022/07/09 09:26:37;;;;;;;3.03;1.40;;;;;;;;;;4986848;28;20153;-75
2022/07/09 09:29:07;;;;;;;4.03;1.50;;;;;;;;;;4987409;28;20598;-76
2022/07/09 09:31:36;;;;;;;2.45;1.33;;;;;;;;;;4992579;28;20105;-75
2022/07/09 09:34:09;;;;;;;4.28;2.00;;;;;;;;;;4986013;28;20069;-76
2022/07/09 09:36:41;;;;;;;5.72;1.20;;;;;;;;;;4986183;28;20129;-75
2022/07/09 09:39:09;;;;;;;1.42;1.20;;;;;;;;;;4983139;28;20554;-76
2022/07/09 09:41:37;;;;;;;2.20;1.42;;;;;;;;;;4986763;28;20082;-76
2022/07/09 09:44:11;;;;;;;6.95;1.40;;;;;;;;;;4985733;28;20780;-76
2022/07/09 09:46:39;;;;;;;3.38;1.42;;;;;;;;;;4983891;28;20514;-75
2022/07/09 09:49:07;;;;;;;5.10;1.33;;;;;;;;;;4986320;28;20061;-76
2022/07/09 09:51:36;;;;;;;3.97;1.30;;;;;;;;;;4985145;28;20562;-76
2022/07/09 09:54:04;;;;;;;3.50;1.33;;;;;;;;;;4987710;28;20089;-76
2022/07/09 09:56:33;;;;;;;3.03;1.30;;;;;;;;;;4970386;28;20118;-76
2022/07/09 09:59:01;;;;;;;6.05;1.45;;;;;;;;;;4985738;28;20133;-77
2022/07/09 10:01:30;;;;;;;6.13;1.30;;;;;;;;;;4987026;28;20054;-76
2022/07/09 10:03:58;;;;;;;7.82;2.08;;;;;;;;;;4984042;28;20060;-76
2022/07/09 10:06:26;;;;;;;5.90;1.52;;;;;;;;;;4985116;28;20046;-76
2022/07/09 10:08:54;;;;;;;5.28;1.90;;;;;;;;;;4984454;28;20264;-75
2022/07/09 10:11:22;;;;;;;4.68;1.88;;;;;;;;;;4968477;28;20122;-76
2022/07/09 10:13:54;;;;;;;6.38;1.80;;;;;;;;;;4981401;28;20302;-76
2022/07/09 10:16:39;;;;;;;7.15;2.13;;;;;;;;;;4986562;28;20090;-78
2022/07/09 10:19:07;;;;;;;4.75;1.85;;;;;;;;;;4981749;28;20050;-77
2022/07/09 10:21:35;;;;;;;5.20;2.08;;;;;;;;;;4967226;28;20141;-76
2022/07/09 10:24:06;;;;;;;4.40;1.98;;;;;;;;;;4985355;28;20093;-75
2022/07/09 10:26:42;;;;;;;3.88;1.65;;;;;;;;;;4983471;28;20085;-76
2022/07/09 10:29:19;;;;;;;4.68;1.92;;;;;;;;;;4986500;28;20133;-77
2022/07/09 10:31:50;;;;;;;3.08;1.30;;;;;;;;;;4986705;28;20078;-77
2022/07/09 10:34:29;;;;;;;3.13;1.40;;;;;;;;;;4994629;28;20050;-76
2022/07/09 10:37:04;;;;;;;2.40;1.30;;;;;;;;;;4987172;28;20564;-77
2022/07/09 10:39:32;;;;;;;4.50;1.33;;;;;;;;;;4993634;28;20104;-76
2022/07/09 10:42:20;;;;;;;5.60;2.05;;;;;;;;;;4987429;28;20762;-79
2022/07/09 10:44:49;;;;;;;6.47;1.42;;;;;;;;;;4979017;28;20125;-77
2022/07/09 10:47:17;;;;;;;8.02;1.92;;;;;;;;;;4984587;28;20132;-79
2022/07/09 10:49:45;;;;;;;4.22;1.17;;;;;;;;;;4996114;28;20479;-76
2022/07/09 10:52:12;;;;;;;3.15;1.08;;;;;;;;;;4986854;28;20128;-77
2022/07/09 10:54:46;;;;;;;4.78;1.00;;;;;;;;;;4985601;28;20139;-77
2022/07/09 10:57:14;;;;;;;5.97;1.10;;;;;;;;;;4993758;28;20566;-76
2022/07/09 10:59:47;;;;;;;8.82;1.02;;;;;;;;;;4996361;28;20074;-76
2022/07/09 11:02:19;;;;;;;8.07;1.50;;;;;;;;;;4988433;28;20141;-77
2022/07/09 11:04:49;;;;;;;4.03;1.50;;;;;;;;;;4985501;28;20078;-77
2022/07/09 11:07:23;;;;;;;9.80;1.25;;;;;;;;;;4986903;28;20053;-77
2022/07/09 11:09:51;;;;;;;6.43;1.20;;;;;;;;;;4992689;28;20497;-76
2022/07/09 11:12:19;;;;;;;2.67;1.08;;;;;;;;;;4989501;28;20170;-77
2022/07/09 11:14:47;;;;;;;5.45;1.20;;;;;;;;;;4990290;28;20073;-76
2022/07/09 11:17:16;;;;;;;4.80;1.15;;;;;;;;;;4987311;28;20149;-77
2022/07/09 11:19:43;;;;;;;4.90;1.40;;;;;;;;;;4984823;28;20066;-76
2022/07/09 11:22:11;;;;;;;3.10;1.48;;;;;;;;;;4983579;28;20165;-77
2022/07/09 11:24:38;;;;;;;3.97;1.75;;;;;;;;;;4981534;28;20059;-77
2022/07/09 11:27:06;;;;;;;5.85;1.60;;;;;;;;;;4984482;28;21014;-77
2022/07/09 11:29:34;;;;;;;5.60;1.33;;;;;;;;;;4987322;28;20065;-77
2022/07/09 11:32:01;;;;;;;2.78;1.30;;;;;;;;;;4983736;28;20046;-77
2022/07/09 11:34:29;;;;;;;4.00;1.17;;;;;;;;;;4982500;28;20520;-77
2022/07/09 11:36:58;;;;;;;5.13;1.73;;;;;;;;;;4984412;28;20057;-77
2022/07/09 11:39:26;;;;;;;7.25;1.45;;;;;;;;;;4984795;28;20133;-77
2022/07/09 11:41:55;;;;;;;4.72;0.98;;;;;;;;;;4984568;28;20053;-77
2022/07/09 11:44:23;;;;;;;5.22;1.20;;;;;;;;;;4980457;28;21275;-76
2022/07/09 11:47:07;;;;;;;2.28;1.20;;;;;;;;;;4984562;28;20054;-77
2022/07/09 11:49:34;;;;;;;6.07;1.38;;;;;;;;;;4989412;28;20053;-78
2022/07/09 11:52:02;;;;;;;12.05;1.42;;;;;;;;;;4972488;28;20069;-78
2022/07/09 11:54:29;;;;;;;3.47;1.30;;;;;;;;;;4999423;28;20105;-78
2022/07/09 11:56:57;;;;;;;14.25;1.48;;;;;;;;;;4989274;28;20097;-78
2022/07/09 11:59:34;;;;;;;5.38;1.30;;;;;;;;;;4990410;28;20507;-78
2022/07/09 12:02:03;;;;;;;4.82;1.02;;;;;;;;;;4985773;28;20101;-78
2022/07/09 12:04:31;;;;;;;5.57;1.30;;;;;;;;;;4992608;28;20085;-77
2022/07/09 12:06:58;;;;;;;4.47;1.35;;;;;;;;;;4986713;28;20046;-78
2022/07/09 12:09:30;;;;;;;3.80;1.25;;;;;;;;;;4993131;28;20148;-81
2022/07/09 12:11:57;;;;;;;2.17;0.98;;;;;;;;;;4990627;28;20808;-77
2022/07/09 12:14:24;;;;;;;3.97;1.00;;;;;;;;;;4985738;28;20150;-83
2022/07/09 12:16:52;;;;;;;4.35;1.25;;;;;;;;;;4989963;28;20074;-80
2022/07/09 12:19:19;;;;;;;3.58;1.52;;;;;;;;;;4988294;28;20058;-77
2022/07/09 12:21:47;;;;;;;5.50;1.05;;;;;;;;;;4980358;28;20503;-77
2022/07/09 12:24:14;;;;;;;5.15;1.08;;;;;;;;;;4983485;28;20061;-77
2022/07/09 12:26:42;;;;;;;3.05;0.88;;;;;;;;;;4988021;28;20130;-77
2022/07/09 12:29:29;;;;;;;4.15;1.23;;;;;;;;;;4984304;28;20046;-77
2022/07/09 12:31:56;;;;;;;6.72;1.20;;;;;;;;;;4984839;28;20169;-77
2022/07/09 12:34:24;;;;;;;5.13;0.82;;;;;;;;;;4970770;28;20715;-77
2022/07/09 12:36:51;;;;;;;3.47;1.38;;;;;;;;;;4973854;28;20157;-77
2022/07/09 12:39:26;;;;;;;6.20;1.15;;;;;;;;;;4979982;28;20057;-77
2022/07/09 12:41:53;;;;;;;4.75;1.65;;;;;;;;;;5008377;28;20049;-77
2022/07/09 12:44:21;;;;;;;4.28;1.40;;;;;;;;;;4996323;28;20133;-77
2022/07/09 12:46:48;;;;;;;4.72;1.30;;;;;;;;;;4988101;28;20089;-77
2022/07/09 12:49:15;;;;;;;3.78;0.82;;;;;;;;;;4986837;28;20317;-77
2022/07/09 12:51:43;;;;;;;2.63;0.90;;;;;;;;;;4986579;28;20096;-77
2022/07/09 12:54:10;;;;;;;4.03;1.20;;;;;;;;;;4987654;28;20092;-77
2022/07/09 12:56:37;;;;;;;3.08;1.00;;;;;;;;;;4978134;28;20165;-77
2022/07/09 12:59:25;;;;;;;5.22;0.90;;;;;;;;;;4987119;28;20060;-77
2022/07/09 13:01:52;;;;;;;3.55;1.10;;;;;;;;;;4987641;28;20113;-77
2022/07/09 13:04:19;;;;;;;2.97;1.00;;;;;;;;;;4988495;28;20557;-77
2022/07/09 13:06:47;;;;;;;2.70;1.20;;;;;;;;;;4989303;28;20069;-77
2022/07/09 13:09:14;;;;;;;4.32;1.25;;;;;;;;;;4993622;28;20077;-77
2022/07/09 13:11:42;;;;;;;7.47;1.25;;;;;;;;;;4987404;28;20133;-77
2022/07/09 13:14:09;;;;;;;3.38;1.25;;;;;;;;;;4993130;28;20086;-77
2022/07/09 13:16:36;;;;;;;7.53;1.38;;;;;;;;;;4980919;28;20160;-77
2022/07/09 13:19:04;;;;;;;3.22;1.35;;;;;;;;;;4990175;28;20769;-77
2022/07/09 13:21:31;;;;;;;5.45;1.10;;;;;;;;;;5006966;28;20562;-77
2022/07/09 13:23:59;;;;;;;8.80;2.10;;;;;;;;;;5006932;28;20088;-77
2022/07/09 13:26:26;;;;;;;2.22;1.20;;;;;;;;;;5006870;28;20050;-77
2022/07/09 13:29:00;;;;;;;6.68;1.63;;;;;;;;;;5001851;28;20086;-77
2022/07/09 13:31:28;;;;;;;5.72;1.30;;;;;;;;;;5008038;28;20481;-77
2022/07/09 13:33:55;;;;;;;4.70;1.70;;;;;;;;;;5006966;28;20136;-77
2022/07/09 13:36:22;;;;;;;7.10;1.60;;;;;;;;;;5007659;28;20144;-77
2022/07/09 13:38:50;;;;;;;5.63;1.52;;;;;;;;;;4994636;28;20770;-77
2022/07/09 13:41:18;;;;;;;10.55;2.67;;;;;;;;;;5006554;28;20860;-77
2022/07/09 13:43:46;;;;;;;8.82;1.27;;;;;;;;;;4995253;28;20077;-77
2022/07/09 13:46:14;;;;;;;8.40;1.52;;;;;;;;;;4988378;28;20116;-77
2022/07/09 13:48:42;;;;;;;4.30;1.30;;;;;;;;;;4988762;28;20066;-77
2022/07/09 13:51:09;;;;;;;5.10;1.40;;;;;;;;;;4967933;28;20066;-77
2022/07/09 13:53:37;;;;;;;7.18;1.35;;;;;;;;;;4980095;28;20058;-77
2022/07/09 13:56:05;;;;;;;3.25;1.00;;;;;;;;;;4997521;28;20636;-77
2022/07/09 13:58:32;;;;;;;7.75;1.17;;;;;;;;;;4970388;28;20109;-77
2022/07/09 14:00:59;;;;;;;5.18;1.20;;;;;;;;;;4970453;28;20113;-76
2022/07/09 14:03:27;;;;;;;7.82;1.50;;;;;;;;;;4987433;28;20505;-77
2022/07/09 14:05:54;;;;;;;3.58;1.20;;;;;;;;;;4970699;28;20153;-76
2022/07/09 14:08:24;;;;;;;5.53;1.25;;;;;;;;;;4988091;28;20149;-76
2022/07/09 14:10:57;;;;;;;4.68;1.20;;;;;;;;;;5003974;28;20132;-76
2022/07/09 14:13:26;;;;;;;6.10;1.25;;;;;;;;;;4997681;28;20101;-76
2022/07/09 14:15:56;;;;;;;10.48;1.63;;;;;;;;;;4971808;28;20141;-77
2022/07/09 14:18:24;;;;;;;15.05;1.23;;;;;;;;;;4970912;28;20101;-77
2022/07/09 14:20:51;;;;;;;2.83;1.02;;;;;;;;;;4986245;28;20767;-77
2022/07/09 14:23:18;;;;;;;3.25;0.85;;;;;;;;;;4992886;28;20476;-77
2022/07/09 14:25:46;;;;;;;3.95;1.25;;;;;;;;;;4967437;28;20162;-77
2022/07/09 14:28:14;;;;;;;2.72;0.95;;;;;;;;;;4968444;28;20129;-77
2022/07/09 14:30:41;;;;;;;7.25;1.45;;;;;;;;;;4969436;28;20471;-77
2022/07/09 14:33:09;;;;;;;8.20;1.40;;;;;;;;;;4997698;28;20376;-77
2022/07/09 14:35:36;;;;;;;4.72;1.40;;;;;;;;;;4989015;28;20565;-77
2022/07/09 14:38:04;;;;;;;4.72;1.10;;;;;;;;;;4988606;28;20165;-77
2022/07/09 14:40:31;;;;;;;3.20;1.10;;;;;;;;;;4987505;28;20137;-77
2022/07/09 14:42:59;;;;;;;5.03;1.08;;;;;;;;;;4969952;28;20085;-77
2022/07/09 14:45:27;;;;;;;6.88;1.17;;;;;;;;;;4971762;28;20074;-77
2022/07/09 14:47:54;;;;;;;8.05;1.10;;;;;;;;;;4970802;28;20149;-77
2022/07/09 14:50:21;;;;;;;3.40;1.20;;;;;;;;;;4989350;28;20093;-76